createdAt,value
2018-11-28T00:02:41.271Z,5.50
2018-11-28T00:05:12.236Z,4.37
2018-11-28T00:07:42.266Z,5.87
2018-11-28T00:10:13.259Z,3.63
2018-11-28T00:12:43.047Z,4.63
2018-11-28T00:15:32.181Z,6.77
2018-11-28T00:18:01.745Z,4.97
2018-11-28T00:20:31.341Z,3.53
2018-11-28T00:23:00.954Z,9.10
2018-11-28T00:25:30.585Z,4.47
2018-11-28T00:28:19.148Z,6.20
2018-11-28T00:30:48.761Z,3.57
2018-11-28T00:33:18.323Z,3.17
2018-11-28T00:35:48.399Z,5.10
2018-11-28T00:38:18.227Z,7.70
2018-11-28T00:40:47.785Z,9.60
2018-11-28T00:43:17.420Z,4.33
2018-11-28T00:45:46.995Z,5.97
2018-11-28T00:48:16.558Z,3.70
2018-11-28T00:50:46.272Z,6.60
2018-11-28T00:53:15.844Z,7.40
2018-11-28T00:55:48.499Z,6.10
2018-11-28T00:58:15.059Z,3.77
2018-11-28T01:00:44.629Z,3.90
2018-11-28T01:03:14.199Z,4.30
2018-11-28T01:05:43.797Z,3.97
2018-11-28T01:08:13.545Z,6.03
2018-11-28T01:10:43.123Z,6.20
2018-11-28T01:13:12.750Z,6.57
2018-11-28T01:15:42.314Z,4.23
2018-11-28T01:18:11.887Z,5.60
2018-11-28T01:20:41.497Z,3.67
2018-11-28T01:23:11.362Z,9.60
2018-11-28T01:25:40.979Z,7.90
2018-11-28T01:28:10.587Z,6.23
2018-11-28T01:30:40.169Z,3.97
2018-11-28T01:33:09.883Z,5.10
2018-11-28T01:35:39.479Z,7.03
2018-11-28T01:38:09.062Z,3.33
2018-11-28T01:40:38.635Z,6.20
2018-11-28T01:43:08.636Z,6.17
2018-11-28T01:45:38.214Z,5.83
2018-11-28T01:48:07.792Z,7.03
2018-11-28T01:50:37.417Z,5.47
2018-11-28T01:53:07.036Z,6.03
2018-11-28T01:55:36.603Z,6.63
2018-11-28T01:58:06.361Z,7.23
2018-11-28T02:00:35.964Z,4.73
2018-11-28T02:03:05.542Z,5.93
2018-11-28T02:05:35.167Z,5.13
2018-11-28T02:08:04.743Z,5.80
2018-11-28T02:10:53.385Z,5.60
2018-11-28T02:13:22.966Z,3.90
2018-11-28T02:15:52.547Z,6.67
2018-11-28T02:18:22.155Z,5.47
2018-11-28T02:20:51.736Z,5.47
2018-11-28T02:23:21.590Z,6.07
2018-11-28T02:25:51.535Z,6.70
2018-11-28T02:28:21.181Z,6.13
2018-11-28T02:30:50.701Z,6.30
2018-11-28T02:33:20.333Z,5.63
2018-11-28T02:35:49.903Z,5.37
2018-11-28T02:38:19.477Z,5.10
2018-11-28T02:40:49.119Z,8.50
2018-11-28T02:43:18.747Z,7.83
2018-11-28T02:46:26.358Z,6.63
2018-11-28T02:48:56.092Z,4.63
2018-11-28T02:51:25.667Z,6.07
2018-11-28T02:53:55.272Z,5.53
2018-11-28T02:56:24.924Z,4.37
2018-11-28T02:58:54.542Z,5.73
2018-11-28T03:01:24.171Z,8.67
2018-11-28T03:03:53.755Z,5.93
2018-11-28T03:06:23.342Z,5.63
2018-11-28T03:08:53.028Z,3.83
2018-11-28T03:11:22.831Z,5.50
2018-11-28T03:13:52.429Z,4.83
2018-11-28T03:16:22.058Z,4.73
2018-11-28T03:18:51.621Z,5.50
2018-11-28T03:21:24.128Z,7.80
2018-11-28T03:23:53.733Z,7.43
2018-11-28T03:26:23.550Z,6.30
2018-11-28T03:28:53.121Z,5.50
2018-11-28T03:31:22.718Z,6.57
2018-11-28T03:33:52.315Z,4.73
2018-11-28T03:36:21.931Z,7.63
2018-11-28T03:38:51.571Z,6.17
2018-11-28T03:41:21.137Z,6.03
2018-11-28T03:43:51.013Z,8.40
2018-11-28T03:46:20.616Z,4.37
2018-11-28T03:48:50.208Z,3.83
2018-11-28T03:51:19.797Z,5.40
2018-11-28T03:54:08.322Z,3.13
2018-11-28T03:56:38.057Z,6.40
2018-11-28T03:59:07.997Z,5.43
2018-11-28T04:01:37.596Z,7.50
2018-11-28T04:04:07.260Z,5.07
2018-11-28T04:06:36.831Z,6.80
2018-11-28T04:09:09.215Z,7.23
2018-11-28T04:11:38.792Z,8.33
2018-11-28T04:14:08.670Z,5.23
2018-11-28T04:16:38.342Z,5.07
2018-11-28T04:19:07.927Z,6.97
2018-11-28T04:21:37.510Z,5.67
2018-11-28T04:24:07.132Z,5.50
2018-11-28T04:26:36.812Z,8.27
2018-11-28T04:29:06.721Z,5.87
2018-11-28T04:31:36.383Z,7.00
2018-11-28T04:34:24.876Z,5.23
2018-11-28T04:36:54.896Z,4.87
2018-11-28T04:39:24.471Z,8.77
2018-11-28T04:41:54.036Z,8.40
2018-11-28T04:44:23.993Z,7.33
2018-11-28T04:46:53.561Z,9.57
2018-11-28T04:49:23.143Z,7.00
2018-11-28T04:51:52.749Z,5.30
2018-11-28T04:54:22.319Z,5.73
2018-11-28T04:56:51.905Z,5.43
2018-11-28T04:59:21.812Z,12.30
2018-11-28T05:01:51.416Z,8.87
2018-11-28T05:04:20.998Z,6.93
2018-11-28T05:07:28.652Z,5.43
2018-11-28T05:09:59.103Z,4.83
2018-11-28T05:12:28.721Z,6.77
2018-11-28T05:15:17.011Z,6.77
2018-11-28T05:17:53.602Z,10.83
2018-11-28T05:20:24.129Z,4.13
2018-11-28T05:22:53.725Z,4.27
2018-11-28T05:25:24.317Z,7.87
2018-11-28T05:27:54.747Z,9.20
2018-11-28T05:30:43.783Z,7.80
2018-11-28T05:33:32.310Z,7.97
2018-11-28T05:36:01.904Z,6.27
2018-11-28T05:38:31.487Z,6.50
2018-11-28T05:41:01.177Z,6.10
2018-11-28T05:43:30.848Z,7.00
2018-11-28T05:46:00.365Z,4.67
2018-11-28T05:48:30.135Z,5.40
2018-11-28T05:50:59.722Z,8.07
2018-11-28T05:53:29.305Z,6.30
2018-11-28T05:55:59.104Z,6.83
2018-11-28T05:58:28.615Z,7.40
2018-11-28T06:00:58.387Z,5.70
2018-11-28T06:03:28.081Z,6.97
2018-11-28T06:05:57.709Z,6.23
2018-11-28T06:08:27.350Z,6.60
2018-11-28T06:10:57.005Z,8.13
2018-11-28T06:13:26.635Z,9.40
2018-11-28T06:15:56.325Z,9.70
2018-11-28T06:18:25.987Z,7.77
2018-11-28T06:20:55.887Z,12.67
2018-11-28T06:23:25.543Z,15.90
2018-11-28T06:25:55.183Z,21.77
2018-11-28T06:28:24.766Z,17.80
2018-11-28T06:30:54.390Z,27.43
2018-11-28T06:33:42.982Z,16.83
2018-11-28T06:36:12.600Z,24.70
2018-11-28T06:38:42.183Z,26.20
2018-11-28T06:41:11.812Z,28.57
2018-11-28T06:43:41.406Z,69.47
2018-11-28T06:46:11.083Z,74.23
2018-11-28T06:48:40.720Z,98.07
2018-11-28T06:51:28.948Z,113.07
2018-11-28T06:53:58.549Z,72.73
2018-11-28T06:56:28.129Z,132.00
2018-11-28T06:58:57.713Z,95.57
2018-11-28T07:01:27.618Z,108.43
2018-11-28T07:03:57.145Z,64.07
2018-11-28T07:06:26.734Z,121.70
2018-11-28T07:08:56.371Z,83.33
2018-11-28T07:11:25.995Z,102.80
2018-11-28T07:13:55.853Z,69.40
2018-11-28T07:16:25.546Z,80.43
2018-11-28T07:19:14.345Z,50.17
2018-11-28T07:21:43.997Z,82.57
2018-11-28T07:24:13.567Z,74.57
2018-11-28T07:26:43.151Z,64.60
2018-11-28T07:29:12.839Z,86.17
2018-11-28T07:31:42.416Z,83.57
2018-11-28T07:34:12.040Z,65.63
2018-11-28T07:36:41.669Z,138.20
2018-11-28T07:39:11.269Z,81.60
2018-11-28T07:41:40.837Z,90.97
2018-11-28T07:46:46.141Z,49.80
2018-11-28T07:49:15.705Z,44.10
2018-11-28T07:51:45.292Z,37.57
2018-11-28T07:56:49.859Z,43.17
2018-11-28T07:59:19.493Z,30.80
2018-11-28T08:01:49.219Z,44.37
2018-11-28T08:04:19.017Z,40.03
2018-11-28T08:06:48.416Z,25.37
2018-11-28T08:09:17.995Z,25.03
2018-11-28T08:11:47.601Z,36.80
2018-11-28T08:14:17.226Z,32.63
2018-11-28T08:16:48.154Z,38.43
2018-11-28T08:19:16.693Z,29.97
2018-11-28T08:21:46.361Z,56.50
2018-11-28T08:24:15.926Z,37.63
2018-11-28T08:26:45.476Z,22.13
2018-11-28T08:29:15.215Z,49.63
2018-11-28T08:31:44.683Z,28.73
2018-11-28T08:34:14.256Z,22.00
2018-11-28T08:36:43.881Z,9.93
2018-11-28T08:39:13.457Z,15.97
2018-11-28T08:41:43.056Z,22.63
2018-11-28T08:44:12.699Z,18.33
2018-11-28T08:46:42.293Z,16.50
2018-11-28T08:49:12.304Z,21.60
2018-11-28T08:51:42.220Z,19.47
2018-11-28T08:54:11.824Z,11.37
2018-11-28T08:56:41.606Z,17.80
2018-11-28T08:59:11.195Z,19.00
2018-11-28T09:01:41.135Z,13.60
2018-11-28T09:04:11.517Z,15.00
2018-11-28T09:06:41.091Z,19.97
2018-11-28T09:09:10.678Z,15.30
2018-11-28T09:11:40.289Z,19.13
2018-11-28T09:14:09.931Z,15.20
2018-11-28T09:16:39.504Z,13.63
2018-11-28T09:19:09.515Z,12.93
2018-11-28T09:21:39.091Z,13.67
2018-11-28T09:24:08.722Z,13.30
2018-11-28T09:26:38.334Z,14.53
2018-11-28T09:29:08.030Z,10.30
2018-11-28T09:31:37.620Z,11.70
2018-11-28T09:34:07.320Z,8.97
2018-11-28T09:36:37.112Z,8.00
2018-11-28T09:39:07.756Z,9.13
2018-11-28T09:41:37.367Z,9.63
2018-11-28T09:44:06.934Z,8.20
2018-11-28T09:46:36.530Z,8.47
2018-11-28T09:49:06.336Z,7.77
2018-11-28T09:51:35.997Z,8.47
2018-11-28T09:54:06.120Z,7.47
2018-11-28T09:56:35.747Z,9.13
2018-11-28T09:59:05.405Z,12.00
2018-11-28T10:01:34.965Z,6.30
2018-11-28T10:04:04.608Z,6.17
2018-11-28T10:06:34.206Z,7.57
2018-11-28T10:09:03.836Z,4.60
2018-11-28T10:11:33.437Z,8.17
2018-11-28T10:14:03.037Z,6.23
2018-11-28T10:16:32.635Z,7.63
2018-11-28T10:19:02.267Z,7.47
2018-11-28T10:21:32.120Z,10.40
2018-11-28T10:24:02.063Z,5.10
2018-11-28T10:26:31.618Z,5.37
2018-11-28T10:29:01.203Z,6.70
2018-11-28T10:31:30.778Z,3.63
2018-11-28T10:34:00.557Z,6.13
2018-11-28T10:36:30.126Z,5.27
2018-11-28T10:39:00.335Z,5.23
2018-11-28T10:41:29.998Z,9.27
2018-11-28T10:43:59.589Z,7.57
2018-11-28T10:46:29.144Z,8.60
2018-11-28T10:48:58.773Z,12.07
2018-11-28T10:51:28.417Z,10.77
2018-11-28T10:53:58.379Z,4.50
2018-11-28T10:56:27.973Z,7.43
2018-11-28T10:58:57.698Z,6.20
2018-11-28T11:01:29.663Z,6.10
2018-11-28T11:04:17.899Z,8.40
2018-11-28T11:07:06.120Z,7.93
2018-11-28T11:09:54.990Z,7.07
2018-11-28T11:12:43.209Z,5.20
2018-11-28T11:15:12.829Z,8.47
2018-11-28T11:17:42.467Z,5.60
2018-11-28T11:20:12.065Z,4.63
2018-11-28T11:22:41.682Z,5.53
2018-11-28T11:25:11.595Z,5.53
2018-11-28T11:27:41.164Z,4.30
2018-11-28T11:30:11.936Z,6.67
2018-11-28T11:32:41.521Z,4.90
2018-11-28T11:35:11.441Z,6.17
2018-11-28T11:37:41.104Z,5.30
2018-11-28T11:40:29.997Z,4.07
2018-11-28T11:42:59.620Z,5.20
2018-11-28T11:45:29.199Z,4.53
2018-11-28T11:47:58.782Z,3.47
2018-11-28T11:50:28.424Z,4.93
2018-11-28T11:52:57.987Z,3.30
2018-11-28T11:55:27.872Z,5.20
2018-11-28T11:57:57.787Z,5.00
2018-11-28T12:00:28.128Z,4.03
2018-11-28T12:03:26.995Z,5.30
2018-11-28T12:06:15.546Z,2.83
2018-11-28T12:08:45.375Z,3.87
2018-11-28T12:11:14.955Z,3.70
2018-11-28T12:13:45.003Z,7.10
2018-11-28T12:16:14.609Z,4.33
2018-11-28T12:18:44.188Z,6.17
2018-11-28T12:21:13.756Z,5.97
2018-11-28T12:23:43.343Z,4.50
2018-11-28T12:26:12.906Z,4.23
2018-11-28T12:28:42.569Z,3.40
2018-11-28T12:31:12.198Z,4.57
2018-11-28T12:33:41.763Z,4.10
2018-11-28T12:36:11.943Z,12.47
2018-11-28T12:38:41.566Z,10.17
2018-11-28T12:41:11.130Z,5.73
2018-11-28T12:43:40.982Z,3.63
2018-11-28T12:46:10.725Z,5.43
2018-11-28T12:48:40.286Z,4.73
2018-11-28T12:51:09.902Z,6.33
2018-11-28T12:53:39.514Z,10.90
2018-11-28T12:56:09.099Z,4.97
2018-11-28T12:58:38.679Z,7.83
2018-11-28T13:01:08.596Z,11.83
2018-11-28T13:03:38.184Z,8.20
2018-11-28T13:06:07.773Z,6.03
2018-11-28T13:08:39.485Z,5.97
2018-11-28T13:11:09.642Z,6.70
2018-11-28T13:13:39.245Z,6.20
2018-11-28T13:16:09.228Z,4.13
2018-11-28T13:18:38.819Z,7.37
2018-11-28T13:21:09.372Z,6.50
2018-11-28T13:23:38.025Z,8.03
2018-11-28T13:26:07.656Z,4.80
2018-11-28T13:28:37.228Z,3.90
2018-11-28T13:31:07.400Z,6.60
2018-11-28T13:33:37.347Z,3.97
2018-11-28T13:36:07.141Z,7.63
2018-11-28T13:38:36.894Z,6.20
2018-11-28T13:41:06.820Z,4.43
2018-11-28T13:43:36.430Z,3.97
2018-11-28T13:46:07.428Z,7.73
2018-11-28T13:48:36.911Z,6.17
2018-11-28T13:51:06.723Z,6.77
2018-11-28T13:53:36.427Z,8.13
2018-11-28T13:58:36.079Z,2.90
2018-11-28T14:01:05.962Z,5.37
2018-11-28T14:03:35.794Z,4.90
2018-11-28T14:06:05.645Z,3.97
2018-11-28T14:08:35.499Z,3.60
2018-11-28T14:11:05.075Z,5.30
2018-11-28T14:13:34.668Z,3.23
2018-11-28T14:16:04.341Z,3.53
2018-11-28T14:18:33.920Z,2.30
2018-11-28T14:21:03.543Z,2.00
2018-11-28T14:23:33.452Z,7.90
2018-11-28T14:26:03.045Z,3.00
2018-11-28T14:28:32.630Z,3.13
2018-11-28T14:31:02.473Z,3.67
2018-11-28T14:33:32.089Z,4.80
2018-11-28T14:36:01.659Z,5.30
2018-11-28T14:38:31.628Z,3.93
2018-11-28T14:41:01.209Z,3.43
2018-11-28T14:43:30.776Z,6.60
2018-11-28T14:46:00.632Z,5.23
2018-11-28T14:48:30.231Z,4.17
2018-11-28T14:50:59.803Z,7.37
2018-11-28T14:53:29.700Z,3.53
2018-11-28T14:55:59.246Z,2.80
2018-11-28T14:58:28.859Z,2.90
2018-11-28T15:00:58.682Z,2.50
2018-11-28T15:03:28.255Z,3.37
2018-11-28T15:06:35.902Z,4.73
2018-11-28T15:09:35.432Z,4.13
2018-11-28T15:12:11.755Z,5.07
2018-11-28T15:14:39.847Z,5.83
2018-11-28T15:17:09.423Z,3.57
2018-11-28T15:19:39.120Z,4.53
2018-11-28T15:22:08.686Z,2.67
2018-11-28T15:24:38.255Z,8.03
2018-11-28T15:27:08.095Z,4.20
2018-11-28T15:29:37.698Z,4.77
2018-11-28T15:32:08.858Z,3.57
2018-11-28T15:34:37.475Z,7.30
2018-11-28T15:37:07.727Z,7.17
2018-11-28T15:39:37.364Z,3.87
2018-11-28T15:42:25.982Z,5.20
2018-11-28T15:44:58.164Z,6.00
2018-11-28T15:47:27.885Z,3.33
2018-11-28T15:49:57.544Z,5.33
2018-11-28T15:52:27.148Z,3.03
2018-11-28T15:55:15.655Z,4.87
2018-11-28T15:57:45.258Z,2.20
2018-11-28T16:00:34.551Z,5.80
2018-11-28T16:03:04.114Z,3.87
2018-11-28T16:05:33.712Z,4.20
2018-11-28T16:08:03.797Z,5.47
2018-11-28T16:10:37.020Z,5.57
2018-11-28T16:13:07.154Z,4.17
2018-11-28T16:15:38.836Z,4.67
2018-11-28T16:18:08.613Z,3.87
2018-11-28T16:20:38.216Z,4.03
2018-11-28T16:23:08.167Z,3.27
2018-11-28T16:25:37.841Z,3.40
2018-11-28T16:28:26.892Z,6.97
2018-11-28T16:30:56.647Z,3.97
2018-11-28T16:33:26.280Z,4.73
2018-11-28T16:35:55.921Z,5.17
2018-11-28T16:38:25.582Z,5.53
2018-11-28T16:40:55.214Z,3.47
2018-11-28T16:43:24.860Z,8.80
2018-11-28T16:45:54.610Z,5.83
2018-11-28T16:48:24.187Z,4.20
2018-11-28T16:50:53.848Z,5.37
2018-11-28T16:53:23.702Z,3.53
2018-11-28T16:55:53.321Z,3.97
2018-11-28T16:58:22.974Z,3.67
2018-11-28T17:00:52.642Z,7.80
2018-11-28T17:03:22.233Z,2.00
2018-11-28T17:05:51.872Z,3.90
2018-11-28T17:08:40.737Z,3.30
2018-11-28T17:11:10.376Z,3.67
2018-11-28T17:13:39.964Z,4.07
2018-11-28T17:16:09.637Z,1.93
2018-11-28T17:18:39.280Z,2.40
2018-11-28T17:21:08.875Z,3.60
2018-11-28T17:23:38.672Z,1.80
2018-11-28T17:26:08.411Z,3.67
2018-11-28T17:28:38.069Z,6.07
2018-11-28T17:31:07.890Z,3.77
2018-11-28T17:33:37.406Z,4.07
2018-11-28T17:36:07.016Z,3.37
2018-11-28T17:38:37.477Z,4.33
2018-11-28T17:41:25.140Z,4.27
2018-11-28T17:43:54.810Z,8.50
2018-11-28T17:46:24.382Z,7.43
2018-11-28T17:48:54.035Z,2.57
2018-11-28T17:51:23.875Z,3.50
2018-11-28T17:53:53.478Z,5.93
2018-11-28T17:56:23.121Z,3.70
2018-11-28T17:58:52.782Z,2.97
2018-11-28T18:01:22.354Z,2.43
2018-11-28T18:03:51.967Z,4.23
2018-11-28T18:06:21.837Z,5.80
2018-11-28T18:08:51.405Z,3.47
2018-11-28T18:11:40.000Z,6.30
2018-11-28T18:14:09.738Z,3.10
2018-11-28T18:16:39.326Z,4.50
2018-11-28T18:19:09.077Z,2.27
2018-11-28T18:21:38.686Z,3.40
2018-11-28T18:24:08.272Z,3.97
2018-11-28T18:26:38.031Z,2.23
2018-11-28T18:29:07.860Z,4.07
2018-11-28T18:31:37.445Z,5.37
2018-11-28T18:34:07.275Z,4.27
2018-11-28T18:36:37.241Z,3.70
2018-11-28T18:39:09.092Z,3.47
2018-11-28T18:41:40.420Z,5.93
2018-11-28T18:44:10.316Z,4.97
2018-11-28T18:46:39.913Z,4.23
2018-11-28T18:49:09.939Z,5.20
2018-11-28T18:51:39.751Z,9.30
2018-11-28T18:54:09.323Z,7.90
2018-11-28T18:56:39.062Z,4.10
2018-11-28T18:59:08.797Z,5.10
2018-11-28T19:01:38.333Z,6.23
2018-11-28T19:04:07.957Z,5.53
2018-11-28T19:06:37.891Z,3.80
2018-11-28T19:09:11.449Z,8.23
2018-11-28T19:11:41.217Z,8.13
2018-11-28T19:14:12.352Z,6.10
2018-11-28T19:16:40.572Z,3.90
2018-11-28T19:19:10.538Z,6.93
2018-11-28T19:21:40.236Z,5.87
2018-11-28T19:24:09.866Z,4.60
2018-11-28T19:26:39.601Z,5.90
2018-11-28T19:29:09.197Z,4.47
2018-11-28T19:31:58.036Z,4.10
2018-11-28T19:34:27.624Z,5.77
2018-11-28T19:36:57.234Z,4.60
2018-11-28T19:39:27.155Z,8.47
2018-11-28T19:41:56.836Z,7.07
2018-11-28T19:44:26.474Z,6.13
2018-11-28T19:46:56.389Z,2.70
2018-11-28T19:49:26.043Z,7.43
2018-11-28T19:51:55.645Z,4.13
2018-11-28T19:54:25.411Z,6.37
2018-11-28T19:57:13.654Z,3.90
2018-11-28T19:59:43.675Z,4.73
2018-11-28T20:02:13.335Z,4.97
2018-11-28T20:04:42.905Z,4.07
2018-11-28T20:07:12.635Z,5.70
2018-11-28T20:09:42.197Z,3.27
2018-11-28T20:12:11.819Z,2.93
2018-11-28T20:14:48.775Z,3.93
2018-11-28T20:17:37.554Z,4.90
2018-11-28T20:20:09.621Z,6.30
2018-11-28T20:22:39.328Z,8.27
2018-11-28T20:25:29.213Z,5.00
2018-11-28T20:28:02.040Z,4.23
2018-11-28T20:30:50.909Z,7.23
2018-11-28T20:33:20.425Z,6.30
2018-11-28T20:35:50.745Z,4.77
2018-11-28T20:38:39.532Z,4.20
2018-11-28T20:41:09.104Z,4.77
2018-11-28T20:43:38.947Z,3.57
2018-11-28T20:46:09.022Z,3.07
2018-11-28T20:48:57.288Z,3.17
2018-11-28T20:51:27.073Z,2.77
2018-11-28T20:54:15.312Z,3.77
2018-11-28T20:56:45.039Z,3.80
2018-11-28T20:59:14.613Z,5.50
2018-11-28T21:01:44.215Z,1.97
2018-11-28T21:04:14.100Z,3.07
2018-11-28T21:06:43.705Z,2.83
2018-11-28T21:09:32.075Z,3.57
2018-11-28T21:14:57.731Z,4.47
2018-11-28T21:17:27.300Z,3.90
2018-11-28T21:19:57.023Z,3.33
2018-11-28T21:22:27.851Z,7.80
2018-11-28T21:24:57.450Z,5.53
2018-11-28T21:27:27.105Z,4.67
2018-11-28T21:29:56.766Z,3.30
2018-11-28T21:32:26.352Z,7.80
2018-11-28T21:34:56.016Z,3.40
2018-11-28T21:37:25.615Z,4.00
2018-11-28T21:40:14.725Z,3.83
2018-11-28T21:42:56.054Z,3.83
2018-11-28T21:45:45.300Z,4.70
2018-11-28T21:48:14.994Z,3.67
2018-11-28T21:50:44.552Z,3.53
2018-11-28T21:53:14.322Z,5.50
2018-11-28T21:56:02.609Z,3.53
2018-11-28T21:58:32.376Z,3.77
2018-11-28T22:01:01.956Z,2.27
2018-11-28T22:03:31.590Z,4.43
2018-11-28T22:06:01.412Z,4.77
2018-11-28T22:08:30.966Z,4.07
2018-11-28T22:11:03.020Z,4.60
2018-11-28T22:13:32.833Z,7.23
2018-11-28T22:16:02.401Z,7.37
2018-11-28T22:18:32.102Z,5.90
2018-11-28T22:21:01.916Z,3.20
2018-11-28T22:23:31.543Z,2.33
2018-11-28T22:26:03.374Z,4.30
2018-11-28T22:28:33.026Z,3.60
2018-11-28T22:31:02.577Z,5.00
2018-11-28T22:33:32.271Z,2.10
2018-11-28T22:36:01.881Z,1.87
2018-11-28T22:38:31.551Z,3.70
2018-11-28T22:41:01.189Z,6.20
2018-11-28T22:43:30.747Z,2.20
2018-11-28T22:46:00.317Z,2.93
2018-11-28T22:48:29.993Z,3.50
2018-11-28T22:50:59.601Z,2.57
2018-11-28T22:53:29.172Z,2.33
2018-11-28T22:55:59.078Z,4.40
2018-11-28T22:58:28.650Z,1.20
2018-11-28T23:01:17.209Z,2.40
2018-11-28T23:04:05.624Z,3.23
2018-11-28T23:06:35.398Z,3.60
2018-11-28T23:09:05.786Z,1.50
2018-11-28T23:11:35.349Z,3.50
2018-11-28T23:14:05.138Z,2.07
2018-11-28T23:16:34.716Z,2.30
2018-11-28T23:19:04.304Z,2.43
2018-11-28T23:21:34.003Z,2.37
2018-11-28T23:24:22.712Z,3.03
2018-11-28T23:26:52.535Z,4.17
2018-11-28T23:29:22.107Z,1.70
2018-11-28T23:31:51.742Z,3.93
2018-11-28T23:34:21.399Z,1.90
2018-11-28T23:36:50.961Z,6.83
2018-11-28T23:39:20.529Z,1.47
2018-11-28T23:41:50.369Z,2.17
2018-11-28T23:44:19.962Z,3.00
2018-11-28T23:46:49.529Z,1.70
2018-11-28T23:49:20.121Z,3.70
2018-11-28T23:51:48.844Z,1.63
2018-11-28T23:54:18.411Z,2.90
2018-11-28T23:56:48.210Z,2.70
2018-11-28T23:59:17.780Z,2.87
